Time;durP1;ratioP1;P1;durP2;ratioP2;P2;SDS_P1;SDS_P2;PMS_P1;PMS_P2;Temp;Humidity;BMP_temperature;BMP_pressure;BME280_temperature;BME280_humidity;BME280_pressure;Samples;Min_cycle;Max_cycle;Signal;HPM_P1;HPM_P2
2023/03/24 05:05:27;;;;;;;24.48;18.23;;;;;;;10.47;76.52;100170.88;5610634;31;80759;-55
2023/03/24 05:08:30;;;;;;;39.00;18.65;;;;;;;10.47;76.52;100170.88;5603044;31;34118;-56
2023/03/24 05:11:32;;;;;;;27.55;18.45;;;;;;;10.08;77.01;100171.75;5603106;31;34453;-55
2023/03/24 05:14:35;;;;;;;26.92;18.05;;;;;;;10.19;77.71;100182.38;5602868;31;33206;-56
2023/03/24 05:17:39;;;;;;;29.05;19.48;;;;;;;10.08;77.81;100179.00;5602954;31;33255;-56
2023/03/24 05:20:41;;;;;;;27.15;17.92;;;;;;;10.15;83.94;100179.47;5602919;31;33636;-56
2023/03/24 05:23:44;;;;;;;27.50;18.00;;;;;;;10.31;72.80;100180.94;5603221;31;33135;-55
2023/03/24 05:26:46;;;;;;;23.30;17.05;;;;;;;10.21;80.94;100186.37;5602782;31;34370;-56
2023/03/24 05:29:48;;;;;;;22.92;17.80;;;;;;;10.42;73.34;100183.53;5602491;31;33231;-56
2023/03/24 05:32:54;;;;;;;25.85;17.95;;;;;;;10.54;72.01;100191.97;5603023;31;33161;-55
2023/03/24 05:35:57;;;;;;;27.30;18.92;;;;;;;10.68;72.03;100186.72;5602929;31;34118;-56
2023/03/24 05:39:00;;;;;;;27.35;17.98;;;;;;;10.75;71.19;100195.22;5602514;31;32894;-56
2023/03/24 05:42:04;;;;;;;24.55;18.40;;;;;;;10.72;80.29;100195.78;5603107;31;33932;-55
2023/03/24 05:45:09;;;;;;;28.90;19.75;;;;;;;10.79;85.29;100197.06;5602682;31;33726;-55
2023/03/24 05:48:11;;;;;;;23.25;17.65;;;;;;;10.88;73.52;100199.09;5602629;31;33355;-56
2023/03/24 05:51:16;;;;;;;25.30;18.80;;;;;;;11.18;71.19;100192.56;5602558;31;34589;-56
2023/03/24 05:54:18;;;;;;;28.55;19.80;;;;;;;11.01;82.25;100193.03;5602742;31;33533;-56
2023/03/24 05:57:21;;;;;;;27.02;20.62;;;;;;;11.00;91.25;100204.88;5602317;31;33252;-56
2023/03/24 06:00:25;;;;;;;24.73;18.85;;;;;;;11.13;77.31;100204.16;5601920;31;34051;-56
2023/03/24 06:03:32;;;;;;;35.10;20.10;;;;;;;11.31;72.65;100202.59;5601916;31;34342;-56
2023/03/24 06:06:37;;;;;;;26.60;19.92;;;;;;;11.45;70.55;100203.44;5566878;31;35069;-56
2023/03/24 06:09:41;;;;;;;28.85;20.62;;;;;;;11.55;84.05;100207.88;5562889;32;34374;-56
2023/03/24 06:12:45;;;;;;;30.30;20.77;;;;;;;11.77;80.81;100205.41;5562773;32;34207;-56
2023/03/24 06:15:47;;;;;;;31.40;20.62;;;;;;;12.00;72.92;100197.56;5554577;32;33634;-56
2023/03/24 06:18:51;;;;;;;26.75;20.60;;;;;;;12.25;68.61;100201.72;5549607;32;33619;-56
2023/03/24 06:22:01;;;;;;;27.40;21.08;;;;;;;12.34;67.75;100201.81;5549965;32;33396;-56
2023/03/24 06:25:05;;;;;;;23.52;19.70;;;;;;;12.48;69.06;100196.47;5549671;32;34857;-56
2023/03/24 06:28:11;;;;;;;25.75;20.00;;;;;;;12.56;63.40;100195.78;5550027;32;33284;-57
2023/03/24 06:31:13;;;;;;;26.47;20.17;;;;;;;12.63;61.71;100202.38;5549698;32;34966;-56
2023/03/24 06:34:16;;;;;;;26.23;19.67;;;;;;;12.86;75.37;100202.47;5549125;32;33307;-56
2023/03/24 06:37:22;;;;;;;32.33;18.92;;;;;;;12.91;66.67;100205.88;5549658;32;34415;-56
2023/03/24 06:40:25;;;;;;;26.12;18.80;;;;;;;12.89;63.81;100207.25;5549276;32;33129;-56
2023/03/24 06:43:28;;;;;;;25.90;19.12;;;;;;;12.99;63.12;100214.34;5549015;32;33131;-56
2023/03/24 06:46:31;;;;;;;36.90;19.83;;;;;;;13.23;70.47;100214.09;5552710;32;32276;-56
2023/03/24 06:49:35;;;;;;;30.92;18.92;;;;;;;13.29;73.12;100205.66;5568936;31;32529;-56
2023/03/24 06:52:38;;;;;;;28.17;19.85;;;;;;;13.30;71.17;100198.38;5568134;32;34752;-56
2023/03/24 06:55:40;;;;;;;25.20;19.40;;;;;;;13.49;71.08;100199.00;5568750;31;33436;-56
2023/03/24 06:58:43;;;;;;;27.85;18.85;;;;;;;13.58;65.19;100182.94;5568772;31;34591;-56
2023/03/24 07:01:48;;;;;;;25.92;19.50;;;;;;;13.62;62.31;100186.63;5568899;32;34466;-56
2023/03/24 07:04:52;;;;;;;32.88;20.85;;;;;;;13.78;74.93;100195.94;5568755;31;33429;-56
2023/03/24 07:07:56;;;;;;;23.08;19.25;;;;;;;13.64;59.23;100189.78;5568047;31;33281;-56
2023/03/24 07:11:03;;;;;;;36.67;19.50;;;;;;;13.87;74.21;100185.19;5553932;32;33289;-56
2023/03/24 07:14:06;;;;;;;26.98;19.10;;;;;;;13.89;66.97;100179.50;5563481;32;33425;-56
2023/03/24 07:17:09;;;;;;;29.15;19.87;;;;;;;13.90;64.53;100183.78;5559616;31;33295;-56
2023/03/24 07:20:11;;;;;;;25.30;19.87;;;;;;;13.90;60.51;100183.78;5588277;31;33224;-56
2023/03/24 07:23:17;;;;;;;33.63;20.45;;;;;;;14.09;66.49;100176.31;5585793;31;32845;-56
2023/03/24 07:26:20;;;;;;;24.50;19.65;;;;;;;13.96;62.29;100163.69;5560191;31;34558;-56
2023/03/24 07:29:24;;;;;;;25.75;19.58;;;;;;;14.06;61.37;100166.16;5567948;32;32111;-58
2023/03/24 07:32:33;;;;;;;21.37;19.08;;;;;;;14.12;60.12;100172.22;5568514;31;34605;-57
2023/03/24 07:35:36;;;;;;;28.73;19.75;;;;;;;14.25;65.66;100174.81;5567899;32;33718;-56
2023/03/24 07:38:39;;;;;;;25.92;19.52;;;;;;;14.39;71.97;100172.03;5568235;31;33236;-56
2023/03/24 07:41:42;;;;;;;28.08;19.08;;;;;;;14.42;59.14;100163.31;5557774;31;34628;-57
2023/03/24 07:44:45;;;;;;;27.73;19.92;;;;;;;14.43;69.13;100154.09;5553273;32;33266;-56
2023/03/24 07:47:48;;;;;;;28.02;21.17;;;;;;;14.62;66.46;100161.19;5549859;32;32401;-56
2023/03/24 07:50:51;;;;;;;28.83;20.52;;;;;;;14.41;55.60;100156.34;5546240;32;33476;-57
2023/03/24 07:53:55;;;;;;;23.05;18.35;;;;;;;14.61;56.00;100163.09;5549618;32;34357;-57
2023/03/24 07:56:58;;;;;;;25.98;19.70;;;;;;;14.62;65.06;100164.69;5547668;32;32995;-56
2023/03/24 08:00:05;;;;;;;25.02;19.52;;;;;;;14.72;56.83;100158.22;5550859;32;33133;-56
2023/03/24 08:03:16;;;;;;;32.20;18.33;;;;;;;14.75;57.39;100154.91;5555433;32;34140;-56
2023/03/24 08:06:19;;;;;;;24.05;17.50;;;;;;;14.74;55.75;100166.81;5548662;32;32112;-56
2023/03/24 08:09:23;;;;;;;18.25;16.30;;;;;;;14.77;55.02;100156.19;5549299;32;33972;-56
2023/03/24 08:12:26;;;;;;;22.50;17.95;;;;;;;14.79;65.57;100153.16;5549996;32;33088;-56
2023/03/24 08:15:30;;;;;;;18.42;16.27;;;;;;;14.96;57.04;100158.59;5551328;31;31793;-56
2023/03/24 08:18:33;;;;;;;23.98;18.00;;;;;;;15.18;67.13;100151.47;5548294;32;34264;-57
2023/03/24 08:21:36;;;;;;;21.92;17.05;;;;;;;15.32;56.89;100151.34;5547562;32;33304;-56
2023/03/24 08:24:38;;;;;;;25.95;18.95;;;;;;;15.23;61.08;100140.50;5548024;32;33676;-56
2023/03/24 08:27:43;;;;;;;22.00;17.58;;;;;;;15.48;59.04;100128.13;5547974;32;34298;-57
2023/03/24 08:30:46;;;;;;;31.77;18.42;;;;;;;15.53;63.33;100130.69;5555599;32;35144;-57
2023/03/24 08:33:48;;;;;;;25.45;19.27;;;;;;;15.47;62.10;100121.16;5546068;32;33758;-56
2023/03/24 08:36:51;;;;;;;22.13;14.85;;;;;;;15.50;54.14;100115.91;5551674;32;34261;-56
2023/03/24 08:39:57;;;;;;;22.42;16.15;;;;;;;15.52;62.71;100118.28;5546378;32;33708;-57
2023/03/24 08:43:02;;;;;;;20.37;15.20;;;;;;;15.76;57.68;100112.41;5555755;32;33616;-56
2023/03/24 08:46:07;;;;;;;19.02;15.05;;;;;;;15.75;53.72;100105.41;5548020;32;33760;-56
2023/03/24 08:49:12;;;;;;;16.73;14.20;;;;;;;15.87;55.49;100108.25;5555376;32;33597;-56
2023/03/24 08:52:15;;;;;;;18.85;14.23;;;;;;;15.86;60.02;100103.97;5557419;32;33561;-56
2023/03/24 08:55:19;;;;;;;19.30;13.32;;;;;;;16.00;60.33;100097.56;5546507;32;34251;-57
2023/03/24 08:58:22;;;;;;;14.35;12.10;;;;;;;16.11;57.92;100099.56;5554232;32;33138;-56
2023/03/24 09:01:24;;;;;;;15.00;11.90;;;;;;;16.11;64.23;100094.16;5558744;32;33452;-56
2023/03/24 09:04:26;;;;;;;16.15;11.55;;;;;;;16.01;58.04;100099.94;5555414;32;33095;-57
2023/03/24 09:07:29;;;;;;;16.92;11.82;;;;;;;16.18;63.59;100107.19;5553368;32;34133;-56
2023/03/24 09:10:31;;;;;;;13.93;12.02;;;;;;;16.25;52.53;100099.34;5555928;32;33639;-56
2023/03/24 09:13:34;;;;;;;15.57;11.60;;;;;;;16.24;53.09;100103.19;5558371;32;33698;-56
2023/03/24 09:16:36;;;;;;;14.07;10.68;;;;;;;16.31;55.78;100097.28;5550503;32;34312;-56
2023/03/24 09:19:38;;;;;;;13.32;10.77;;;;;;;16.38;59.55;100089.44;5552798;32;34244;-57
2023/03/24 09:22:43;;;;;;;13.52;10.40;;;;;;;16.47;60.37;100092.09;5557428;32;34219;-56
2023/03/24 09:25:50;;;;;;;13.52;11.15;;;;;;;16.51;56.66;100091.13;5557008;32;33920;-56
2023/03/24 09:28:52;;;;;;;13.95;11.23;;;;;;;16.61;57.69;100088.03;5550087;32;34232;-56
2023/03/24 09:31:55;;;;;;;18.70;11.48;;;;;;;16.59;54.34;100078.69;5554039;32;34407;-56
2023/03/24 09:34:58;;;;;;;16.48;11.10;;;;;;;16.69;55.68;100078.28;5549722;32;33588;-56
2023/03/24 09:38:02;;;;;;;23.38;12.15;;;;;;;16.75;52.71;100076.97;5548517;32;33257;-57
2023/03/24 09:41:21;;;;;;;15.60;11.57;;;;;;;16.80;55.08;100070.59;5543060;32;33659;-57
2023/03/24 09:44:35;;;;;;;17.05;12.98;;;;;;;16.81;52.43;100069.47;5551560;32;33692;-56
2023/03/24 09:47:42;;;;;;;15.38;12.13;;;;;;;16.80;51.50;100063.28;5553225;31;33569;-56
2023/03/24 09:50:53;;;;;;;17.05;12.52;;;;;;;16.83;52.68;100059.12;5550488;32;33800;-56
2023/03/24 09:53:59;;;;;;;21.60;13.18;;;;;;;17.00;54.40;100055.47;5560861;32;34270;-57
2023/03/24 09:57:02;;;;;;;;;;;;;;;16.96;52.43;100049.94;5559104;32;33358;-56
2023/03/24 10:00:20;;;;;;;25.80;13.13;;;;;;;17.03;53.90;100044.00;5551805;32;33944;-57
2023/03/24 10:03:23;;;;;;;19.05;12.52;;;;;;;17.08;51.65;100041.06;5556883;32;33601;-57
2023/03/24 10:06:27;;;;;;;20.33;12.63;;;;;;;17.11;54.76;100032.28;5549541;32;33009;-57
2023/03/24 10:09:34;;;;;;;16.37;12.07;;;;;;;17.21;54.36;100033.78;5560883;32;33697;-56
2023/03/24 10:12:39;;;;;;;16.00;12.43;;;;;;;17.35;55.91;100026.97;5552817;32;33779;-57
2023/03/24 10:16:03;;;;;;;26.50;12.15;;;;;;;17.38;53.01;100020.88;5560508;31;33151;-56
2023/03/24 10:19:42;;;;;;;26.02;12.95;;;;;;;17.45;52.47;100012.22;5552791;32;33846;-56
2023/03/24 10:23:12;;;;;;;14.63;11.75;;;;;;;17.73;52.22;100006.16;5552545;31;33856;-56
2023/03/24 10:26:50;;;;;;;18.62;11.27;;;;;;;17.88;53.72;99997.41;5559425;32;33772;-56
2023/03/24 10:30:02;;;;;;;16.27;11.18;;;;;;;17.97;51.88;99998.06;5540519;32;33743;-56
2023/03/24 10:33:04;;;;;;;14.20;10.98;;;;;;;18.07;52.54;99996.81;5557866;32;34399;-56
2023/03/24 10:36:13;;;;;;;24.17;10.50;;;;;;;18.24;52.44;99990.34;5551783;32;33658;-57
2023/03/24 10:39:16;;;;;;;20.27;7.40;;;;;;;18.22;49.35;99979.88;5559698;32;33620;-57
2023/03/24 10:42:31;;;;;;;12.75;6.65;;;;;;;18.28;50.33;99975.78;5556037;32;33750;-57
2023/03/24 10:45:35;;;;;;;15.45;6.75;;;;;;;18.27;46.46;99968.75;5551713;32;33873;-57
2023/03/24 10:48:39;;;;;;;14.02;5.78;;;;;;;18.33;45.59;99979.41;5561080;32;33656;-57
2023/03/24 10:51:48;;;;;;;16.58;6.87;;;;;;;18.35;45.30;99972.50;5552292;32;33894;-56
2023/03/24 10:54:57;;;;;;;12.07;6.65;;;;;;;18.42;47.93;99978.13;5559333;31;34454;-56
2023/03/24 10:58:00;;;;;;;12.40;6.57;;;;;;;18.47;44.97;99975.16;5551031;32;33822;-56
2023/03/24 11:01:21;;;;;;;11.10;6.18;;;;;;;18.54;49.97;99977.31;5549081;31;34465;-57
2023/03/24 11:04:25;;;;;;;11.15;6.32;;;;;;;18.57;46.85;99973.13;5552154;32;33669;-57
2023/03/24 11:07:37;;;;;;;10.15;6.18;;;;;;;18.65;50.42;99962.13;5548620;32;33740;-57
2023/03/24 11:10:40;;;;;;;10.13;5.68;;;;;;;18.74;46.43;99962.81;5552697;32;33722;-56
2023/03/24 11:13:53;;;;;;;16.25;6.25;;;;;;;18.83;49.14;99959.94;5559541;31;33833;-57
2023/03/24 11:17:14;;;;;;;11.27;5.68;;;;;;;18.85;45.45;99951.47;5555444;32;33722;-56
2023/03/24 11:20:28;;;;;;;17.08;5.97;;;;;;;18.87;43.94;99941.03;5551062;32;33743;-56
2023/03/24 11:23:38;;;;;;;11.55;6.43;;;;;;;18.89;44.64;99936.81;5554519;31;33930;-56
2023/03/24 11:26:49;;;;;;;15.02;5.57;;;;;;;18.93;45.14;99926.06;5546033;32;33322;-57
2023/03/24 11:29:53;;;;;;;14.35;5.87;;;;;;;19.03;45.87;99914.69;5545691;32;33733;-56
2023/03/24 11:32:57;;;;;;;15.10;5.87;;;;;;;19.11;43.65;99911.03;5549216;32;34239;-57
2023/03/24 11:36:46;;;;;;;13.62;5.93;;;;;;;19.24;45.54;99914.47;5547290;32;34408;-56
2023/03/24 11:40:15;;;;;;;7.35;4.53;;;;;;;19.35;46.15;99922.88;5549438;31;33828;-57
2023/03/24 11:43:21;;;;;;;8.13;4.62;;;;;;;19.40;43.46;99907.13;5562745;32;33002;-57
2023/03/24 11:46:25;;;;;;;12.07;5.22;;;;;;;19.45;43.03;99904.13;5557885;31;33674;-57
2023/03/24 11:49:36;;;;;;;6.72;4.47;;;;;;;19.48;44.07;99889.03;5552096;32;33744;-56
2023/03/24 11:52:48;;;;;;;9.88;4.40;;;;;;;19.53;43.71;99877.88;5557310;32;33734;-57
2023/03/24 11:56:05;;;;;;;6.75;3.85;;;;;;;19.68;41.41;99884.50;5554801;32;34441;-57
2023/03/24 11:59:30;;;;;;;5.55;3.65;;;;;;;19.69;43.76;99880.63;5558072;32;34387;-56
2023/03/24 12:02:57;;;;;;;7.60;3.45;;;;;;;19.66;41.69;99873.94;5554206;32;33707;-57
2023/03/24 12:06:32;;;;;;;10.43;3.87;;;;;;;19.73;40.55;99867.88;5550716;32;33153;-57
2023/03/24 12:09:49;;;;;;;5.68;2.75;;;;;;;19.83;39.76;99870.06;5552492;32;33235;-57
2023/03/24 12:12:58;;;;;;;8.68;2.90;;;;;;;20.00;38.50;99865.34;5547883;32;33667;-57
2023/03/24 12:16:09;;;;;;;6.25;3.05;;;;;;;20.04;39.07;99849.91;5552248;32;33787;-57
2023/03/24 12:19:30;;;;;;;9.32;3.25;;;;;;;20.10;43.42;99838.41;5548695;32;34227;-56
2023/03/24 12:22:44;;;;;;;8.60;2.90;;;;;;;20.13;38.62;99839.59;5551425;32;34426;-57
2023/03/24 12:26:09;;;;;;;6.05;2.60;;;;;;;20.09;38.93;99838.75;5545976;32;34756;-57
2023/03/24 12:29:28;;;;;;;16.25;4.12;;;;;;;20.13;38.47;99826.81;5548348;32;34299;-57
2023/03/24 12:32:31;;;;;;;6.80;2.67;;;;;;;20.22;39.99;99826.56;5557863;32;33709;-57
2023/03/24 12:35:59;;;;;;;4.15;2.60;;;;;;;20.25;39.26;99819.63;5546719;32;33329;-57
2023/03/24 12:39:16;;;;;;;4.87;2.80;;;;;;;20.32;38.21;99808.88;5548701;32;33997;-57
2023/03/24 12:42:20;;;;;;;4.78;2.45;;;;;;;20.32;41.13;99808.88;5553397;32;33801;-57
2023/03/24 12:45:41;;;;;;;5.22;2.47;;;;;;;20.34;38.65;99812.03;5555381;32;33765;-57
2023/03/24 12:48:46;;;;;;;6.18;2.67;;;;;;;20.44;39.28;99803.28;5550710;32;34874;-57
2023/03/24 12:52:22;;;;;;;3.83;2.42;;;;;;;20.43;38.85;99801.72;5549417;32;32267;-57
2023/03/24 12:55:34;;;;;;;5.50;2.55;;;;;;;20.46;38.66;99794.75;5570564;31;33752;-57
2023/03/24 12:58:56;;;;;;;7.55;3.08;;;;;;;20.61;39.06;99786.50;5557272;32;33619;-57
2023/03/24 13:02:25;;;;;;;7.72;2.92;;;;;;;20.63;38.09;99784.22;5549803;32;33643;-57
2023/03/24 13:05:42;;;;;;;2.83;2.40;;;;;;;20.62;37.88;99777.19;5551568;32;34267;-57
2023/03/24 13:08:58;;;;;;;5.57;2.72;;;;;;;20.65;38.27;99781.13;5552199;32;34350;-57
2023/03/24 13:12:09;;;;;;;4.55;2.70;;;;;;;20.68;38.65;99777.69;5550589;31;33771;-57
2023/03/24 13:15:11;;;;;;;9.75;2.62;;;;;;;20.71;38.11;99768.78;5559137;31;33986;-56
2023/03/24 13:18:38;;;;;;;4.25;2.58;;;;;;;20.79;38.72;99762.28;5549704;32;33574;-57
2023/03/24 13:21:40;;;;;;;5.53;2.60;;;;;;;20.88;37.66;99756.59;5556015;32;33645;-56
2023/03/24 13:24:45;;;;;;;4.40;2.80;;;;;;;21.02;38.20;99750.59;5567769;32;34294;-57
2023/03/24 13:27:54;;;;;;;4.55;2.90;;;;;;;21.00;37.45;99753.69;5553202;32;32133;-57
2023/03/24 13:30:59;;;;;;;6.22;2.97;;;;;;;21.06;37.06;99751.47;5561326;32;32089;-57
2023/03/24 13:34:05;;;;;;;3.70;2.70;;;;;;;21.06;39.63;99754.19;5560567;32;33240;-56
2023/03/24 13:37:16;;;;;;;17.45;3.85;;;;;;;21.01;37.04;99744.38;5551964;32;33782;-57
2023/03/24 13:40:25;;;;;;;5.72;2.85;;;;;;;21.09;36.44;99742.53;5554991;32;34352;-56
2023/03/24 13:43:32;;;;;;;5.97;2.83;;;;;;;21.09;36.27;99746.06;5557699;32;33617;-57
2023/03/24 13:46:37;;;;;;;6.50;2.62;;;;;;;21.07;39.26;99734.72;5550187;32;33688;-57
2023/03/24 13:49:43;;;;;;;5.37;2.53;;;;;;;20.97;37.22;99743.53;5550626;32;33701;-57
2023/03/24 13:52:48;;;;;;;4.20;2.75;;;;;;;20.89;37.49;99730.94;5557306;32;34422;-57
2023/03/24 13:55:51;;;;;;;4.97;2.67;;;;;;;20.89;39.02;99722.75;5556612;32;33419;-57
2023/03/24 13:58:56;;;;;;;4.40;2.65;;;;;;;20.86;37.37;99723.47;5550348;32;34321;-57
2023/03/24 14:02:22;;;;;;;8.15;2.72;;;;;;;20.92;39.42;99730.19;5550755;32;34340;-56
2023/03/24 14:05:30;;;;;;;3.78;2.97;;;;;;;20.87;40.12;99725.06;5550535;32;34354;-57
2023/03/24 14:09:04;;;;;;;5.93;2.42;;;;;;;20.78;42.50;99719.09;5550347;32;33475;-57
2023/03/24 14:12:16;;;;;;;4.13;2.90;;;;;;;20.78;38.12;99705.47;5554242;32;33654;-56
2023/03/24 14:15:34;;;;;;;6.18;2.62;;;;;;;20.87;38.41;99701.34;5558938;32;34309;-57
2023/03/24 14:18:37;;;;;;;10.00;2.80;;;;;;;20.86;37.48;99701.69;5556237;32;33594;-57
2023/03/24 14:21:40;;;;;;;11.12;2.80;;;;;;;20.84;37.26;99696.63;5556189;32;33474;-57
2023/03/24 14:24:53;;;;;;;22.52;3.50;;;;;;;20.88;37.70;99697.47;5569478;32;34301;-57
2023/03/24 14:28:07;;;;;;;7.30;3.17;;;;;;;20.91;37.78;99698.66;5558452;32;33694;-57
2023/03/24 14:31:14;;;;;;;4.32;2.65;;;;;;;20.92;39.87;99694.78;5549612;32;34438;-56
2023/03/24 14:34:24;;;;;;;5.65;2.72;;;;;;;20.95;37.51;99696.78;5556813;32;34636;-57
2023/03/24 14:37:28;;;;;;;4.80;3.00;;;;;;;20.86;37.18;99702.50;5561579;32;33927;-57
2023/03/24 14:40:39;;;;;;;5.47;2.80;;;;;;;20.78;37.07;99698.06;5549991;32;33610;-57
2023/03/24 14:43:45;;;;;;;10.13;2.90;;;;;;;20.74;37.42;99689.06;5568522;31;33656;-56
2023/03/24 14:46:49;;;;;;;3.47;2.92;;;;;;;20.64;38.03;99689.69;5566083;32;33775;-56
2023/03/24 14:49:53;;;;;;;4.55;2.62;;;;;;;20.58;38.11;99694.66;5581446;31;34363;-56
2023/03/24 14:53:02;;;;;;;6.37;3.10;;;;;;;20.56;38.35;99691.53;5588620;31;33616;-56
2023/03/24 14:56:13;;;;;;;5.62;3.10;;;;;;;20.54;38.42;99684.84;5589218;31;33435;-58
2023/03/24 14:59:48;;;;;;;7.03;2.97;;;;;;;20.57;42.55;99678.69;5567804;31;33525;-57
2023/03/24 15:02:55;;;;;;;6.20;3.08;;;;;;;20.56;40.18;99680.63;5564544;32;34360;-57
2023/03/24 15:06:27;;;;;;;4.37;2.80;;;;;;;20.48;39.15;99687.06;5569630;32;34279;-56
2023/03/24 15:09:35;;;;;;;6.25;2.83;;;;;;;20.49;39.18;99683.19;5558462;31;33997;-57
2023/03/24 15:12:41;;;;;;;6.57;3.25;;;;;;;20.46;38.52;99678.47;5549607;32;34346;-58
2023/03/24 15:15:46;;;;;;;6.62;2.78;;;;;;;20.45;40.89;99676.91;5549987;32;34328;-57
2023/03/24 15:19:09;;;;;;;4.15;2.90;;;;;;;20.44;39.49;99664.44;5549879;32;34500;-56
2023/03/24 15:22:12;;;;;;;4.45;3.10;;;;;;;20.41;38.71;99665.16;5550891;32;34427;-57
2023/03/24 15:25:14;;;;;;;16.05;2.80;;;;;;;20.36;38.55;99660.00;5549780;32;33890;-56
2023/03/24 15:28:20;;;;;;;8.25;3.10;;;;;;;20.32;38.88;99659.16;5552448;32;33592;-57
2023/03/24 15:31:24;;;;;;;;;;;;;;;20.27;38.75;99663.00;5551002;32;33759;-57
2023/03/24 15:34:29;;;;;;;7.62;3.17;;;;;;;20.29;39.02;99657.16;5549824;32;33903;-57
2023/03/24 15:37:37;;;;;;;5.93;2.90;;;;;;;20.23;39.05;99659.44;5550154;32;33658;-56
2023/03/24 15:40:55;;;;;;;7.60;2.90;;;;;;;20.21;38.91;99663.66;5563245;32;33587;-56
2023/03/24 15:43:57;;;;;;;6.62;3.00;;;;;;;20.17;39.57;99658.16;5555605;31;34327;-57
2023/03/24 15:47:02;;;;;;;10.93;3.55;;;;;;;20.15;41.49;99653.06;5546770;32;34432;-58
2023/03/24 15:50:05;;;;;;;7.82;2.85;;;;;;;20.16;39.34;99651.13;5550007;32;34344;-58
2023/03/24 15:53:13;;;;;;;5.90;2.80;;;;;;;20.15;41.36;99655.78;5549680;32;33777;-58
2023/03/24 15:56:24;;;;;;;8.70;3.17;;;;;;;20.12;39.49;99653.78;5549784;32;33888;-58
2023/03/24 15:59:36;;;;;;;5.30;3.25;;;;;;;20.06;39.08;99649.78;5549527;32;33734;-58
2023/03/24 16:02:42;;;;;;;6.22;3.05;;;;;;;20.04;38.88;99652.09;5549625;32;33776;-58
2023/03/24 16:05:47;;;;;;;4.55;2.87;;;;;;;20.00;42.40;99651.25;5549462;32;34464;-58
2023/03/24 16:08:49;;;;;;;7.95;3.58;;;;;;;19.93;40.63;99654.62;5549301;32;34317;-58
2023/03/24 16:11:52;;;;;;;6.65;3.33;;;;;;;19.85;39.74;99650.19;5549294;32;33675;-58
2023/03/24 16:14:54;;;;;;;4.97;3.25;;;;;;;19.83;40.00;99652.47;5549447;32;33786;-58
2023/03/24 16:17:57;;;;;;;4.75;3.25;;;;;;;19.82;42.82;99642.75;5549306;32;33686;-58
2023/03/24 16:21:01;;;;;;;4.55;3.33;;;;;;;19.77;43.87;99647.69;5549130;32;33811;-58
2023/03/24 16:24:03;;;;;;;6.03;3.12;;;;;;;19.72;43.66;99643.31;5549074;32;33824;-58
2023/03/24 16:27:06;;;;;;;4.45;3.12;;;;;;;19.67;42.13;99644.41;5548720;32;34342;-58
2023/03/24 16:30:20;;;;;;;7.37;3.33;;;;;;;19.64;45.99;99650.56;5548565;32;34442;-58
2023/03/24 16:33:22;;;;;;;4.40;3.25;;;;;;;19.64;44.55;99650.56;5549361;32;33505;-58
